Time;durP1;ratioP1;P1;durP2;ratioP2;P2;SDS_P1;SDS_P2;PMS_P1;PMS_P2;Temp;Humidity;BMP_temperature;BMP_pressure;BME280_temperature;BME280_humidity;BME280_pressure;Samples;Min_cycle;Max_cycle;Signal;HPM_P1;HPM_P2
2022/03/15 00:00:16;;;;;;;44.80;28.90;;;;;;;2.18;59.43;101863.77;87664;1284;78982;-67
2022/03/15 00:02:44;;;;;;;41.60;27.00;;;;;;;2.14;59.18;101860.68;87654;1284;81265;-68
2022/03/15 00:04:55;;;;;;;44.20;27.10;;;;;;;2.08;59.28;101858.92;87683;1284;100064;-65
2022/03/15 00:07:04;;;;;;;46.50;28.70;;;;;;;2.07;59.25;101856.39;87663;1284;88704;-66
2022/03/15 00:09:13;;;;;;;44.30;27.80;;;;;;;2.08;59.47;101856.45;87648;1284;95066;-64
2022/03/15 00:11:22;;;;;;;45.20;28.60;;;;;;;2.08;59.57;101855.90;87672;1284;77596;-64
2022/03/15 00:13:31;;;;;;;45.90;27.90;;;;;;;2.07;59.46;101854.73;87656;1284;81004;-64
2022/03/15 00:15:41;;;;;;;46.30;29.00;;;;;;;2.01;59.76;101852.63;87646;1284;99828;-64
2022/03/15 00:17:50;;;;;;;46.20;29.70;;;;;;;2.02;59.70;101852.23;87689;1284;88403;-64
2022/03/15 00:19:59;;;;;;;44.90;28.80;;;;;;;1.99;59.69;101852.45;87638;1284;93715;-67
2022/03/15 00:22:08;;;;;;;46.80;28.00;;;;;;;1.95;59.47;101856.43;87652;1284;79837;-67
2022/03/15 00:24:22;;;;;;;43.90;27.80;;;;;;;1.87;59.51;101853.94;87675;1284;80639;-66
2022/03/15 00:26:35;;;;;;;49.30;29.10;;;;;;;1.82;59.50;101850.16;87648;1284;96858;-67
2022/03/15 00:28:44;;;;;;;52.40;31.50;;;;;;;1.74;59.68;101851.16;87666;1283;88655;-67
2022/03/15 00:30:53;;;;;;;48.00;30.30;;;;;;;1.70;59.85;101858.17;87698;1284;95351;-67
2022/03/15 00:33:02;;;;;;;46.50;30.20;;;;;;;1.63;59.66;101852.43;87654;1284;77623;-67
2022/03/15 00:35:16;;;;;;;48.60;29.90;;;;;;;1.53;59.80;101846.36;87696;1284;83696;-68
2022/03/15 00:37:26;;;;;;;49.80;30.60;;;;;;;1.48;59.85;101840.23;87666;1284;98991;-67
2022/03/15 00:39:37;;;;;;;45.00;30.40;;;;;;;1.47;60.07;101840.67;87677;1284;88745;-66
2022/03/15 00:41:46;;;;;;;47.80;28.90;;;;;;;1.46;60.19;101837.92;87632;1284;95540;-67
2022/03/15 00:43:55;;;;;;;47.70;30.00;;;;;;;1.43;60.12;101836.66;87658;1284;79180;-66
2022/03/15 00:46:04;;;;;;;50.10;28.80;;;;;;;1.42;60.23;101837.78;87656;1284;82788;-67
2022/03/15 00:48:14;;;;;;;47.10;29.20;;;;;;;1.45;60.82;101842.20;87677;1284;99999;-67
2022/03/15 00:50:24;;;;;;;48.70;30.00;;;;;;;1.47;60.85;101842.08;87700;1284;89729;-66
2022/03/15 00:52:36;;;;;;;51.90;28.80;;;;;;;1.51;60.67;101834.05;87629;1284;93820;-66
2022/03/15 00:54:46;;;;;;;47.30;29.80;;;;;;;1.55;60.83;101835.21;87668;1284;80464;-63
2022/03/15 00:56:59;;;;;;;53.10;31.10;;;;;;;1.61;60.83;101837.83;87676;1284;80360;-64
2022/03/15 00:59:11;;;;;;;51.00;28.20;;;;;;;1.62;60.75;101839.87;87666;1284;100624;-64
2022/03/15 01:01:23;;;;;;;51.00;30.40;;;;;;;1.65;60.81;101838.79;87404;1285;87074;-64
2022/03/15 01:03:32;;;;;;;52.90;31.10;;;;;;;1.58;60.73;101836.09;87674;1284;95610;-64
2022/03/15 01:05:43;;;;;;;48.20;31.00;;;;;;;1.53;61.06;101840.98;87655;1284;78092;-64
2022/03/15 01:07:52;;;;;;;50.50;30.40;;;;;;;1.52;60.85;101843.39;87676;1284;80444;-64
2022/03/15 01:10:01;;;;;;;54.20;32.30;;;;;;;1.49;60.94;101839.48;87638;1283;99306;-64
2022/03/15 01:12:13;;;;;;;56.90;34.40;;;;;;;1.42;60.93;101837.95;87654;1284;88645;-63
2022/03/15 01:14:25;;;;;;;50.80;31.60;;;;;;;1.33;60.78;101840.19;87697;1283;92316;-66
2022/03/15 01:16:34;;;;;;;53.10;31.60;;;;;;;1.21;60.93;101838.92;87667;1284;77940;-67
2022/03/15 01:18:45;;;;;;;47.60;30.30;;;;;;;1.14;60.89;101831.72;87661;1284;81897;-67
2022/03/15 01:20:55;;;;;;;48.90;30.00;;;;;;;1.04;61.12;101830.56;87670;1284;98352;-68
2022/03/15 01:23:04;;;;;;;49.40;31.10;;;;;;;0.92;61.35;101835.23;87662;1284;88080;-67
2022/03/15 01:25:14;;;;;;;47.00;30.50;;;;;;;0.90;61.57;101836.63;87671;1284;95468;-64
2022/03/15 01:27:23;;;;;;;51.70;29.20;;;;;;;0.82;61.63;101830.70;87692;1283;77052;-64
2022/03/15 01:29:31;;;;;;;49.50;31.00;;;;;;;0.76;61.75;101827.69;87674;1284;82572;-64
2022/03/15 01:31:40;;;;;;;47.40;30.00;;;;;;;0.74;61.84;101830.84;87650;1284;100369;-64
2022/03/15 01:33:58;;;;;;;54.00;31.00;;;;;;;0.71;61.90;101824.48;87674;1284;88107;-63
2022/03/15 01:36:07;;;;;;;52.60;32.30;;;;;;;0.70;62.20;101830.36;87665;1284;95397;-67
2022/03/15 01:38:16;;;;;;;52.40;31.80;;;;;;;0.66;62.08;101831.00;87664;1284;77731;-66
2022/03/15 01:40:25;;;;;;;47.10;29.20;;;;;;;0.56;62.48;101824.63;87700;1284;81008;-63
2022/03/15 01:42:37;;;;;;;48.20;30.90;;;;;;;0.48;62.38;101827.07;87666;1284;99147;-64
2022/03/15 01:44:51;;;;;;;51.60;30.10;;;;;;;0.43;62.48;101825.26;87653;1285;89132;-63
2022/03/15 01:46:58;;;;;;;;;;;;;;;0.37;62.53;101827.17;87662;1284;93786;-64
2022/03/15 01:49:06;;;;;;;50.70;30.90;;;;;;;0.32;62.61;101831.05;87637;1284;78360;-68
2022/03/15 01:51:17;;;;;;;47.00;28.30;;;;;;;0.27;62.82;101831.34;87660;1284;82149;-66
2022/03/15 01:53:26;;;;;;;44.80;28.30;;;;;;;0.23;62.84;101830.87;87684;1284;97644;-67
2022/03/15 01:55:35;;;;;;;51.10;31.30;;;;;;;0.22;62.90;101828.77;87664;1284;89205;-68
2022/03/15 01:57:44;;;;;;;54.40;31.10;;;;;;;0.23;63.02;101829.45;87637;1284;96257;-66
2022/03/15 01:59:53;;;;;;;51.20;30.60;;;;;;;0.24;63.16;101830.80;87674;1284;78171;-64
2022/03/15 02:02:05;;;;;;;53.80;29.50;;;;;;;0.25;63.08;101832.71;87672;1283;81690;-64
2022/03/15 02:04:17;;;;;;;50.20;30.50;;;;;;;0.18;63.07;101836.30;87672;1284;98369;-68
2022/03/15 02:06:29;;;;;;;52.80;31.40;;;;;;;0.08;63.39;101833.88;87702;1284;88203;-67
2022/03/15 02:08:37;;;;;;;53.30;31.90;;;;;;;0.01;63.50;101831.60;87654;1284;94709;-67
2022/03/15 02:10:49;;;;;;;51.90;30.30;;;;;;;-0.03;63.38;101833.05;87657;1284;78289;-66
2022/03/15 02:13:00;;;;;;;49.50;30.20;;;;;;;-0.05;63.50;101827.52;87681;1284;81506;-63
2022/03/15 02:15:11;;;;;;;49.60;30.70;;;;;;;-0.06;63.62;101825.79;87667;1284;100231;-64
2022/03/15 02:17:23;;;;;;;49.80;30.30;;;;;;;-0.09;63.69;101826.31;87666;1284;88332;-64
2022/03/15 02:19:37;;;;;;;48.10;31.00;;;;;;;-0.13;63.76;101821.94;87693;1284;96108;-66
2022/03/15 02:21:46;;;;;;;53.10;31.80;;;;;;;-0.19;63.62;101822.51;87641;1284;77536;-68
2022/03/15 02:23:58;;;;;;;49.60;30.40;;;;;;;-0.27;63.76;101828.26;87644;1283;82872;-65
2022/03/15 02:26:10;;;;;;;48.70;30.00;;;;;;;-0.37;63.81;101820.51;87680;1284;99278;-64
2022/03/15 02:28:19;;;;;;;49.10;30.20;;;;;;;-0.45;63.97;101815.78;87687;1284;86756;-65
2022/03/15 02:30:30;;;;;;;50.90;30.30;;;;;;;-0.52;64.32;101814.10;87673;1284;95683;-67
2022/03/15 02:32:40;;;;;;;50.80;30.10;;;;;;;-0.56;64.22;101813.95;87647;1284;79709;-66
2022/03/15 02:34:49;;;;;;;52.30;32.00;;;;;;;-0.51;64.72;101811.02;87642;1284;83823;-68
2022/03/15 02:37:00;;;;;;;59.40;33.00;;;;;;;-0.41;64.78;101813.82;87621;1284;100657;-66
2022/03/15 02:39:09;;;;;;;52.60;31.10;;;;;;;-0.34;64.65;101812.21;87704;1284;87603;-67
2022/03/15 02:41:21;;;;;;;53.80;31.00;;;;;;;-0.30;65.04;101818.52;87654;1284;93992;-67
2022/03/15 02:43:33;;;;;;;48.80;31.60;;;;;;;-0.24;64.84;101820.67;87668;1284;78778;-66
2022/03/15 02:45:42;;;;;;;46.00;29.70;;;;;;;-0.25;64.84;101821.91;87688;1284;81386;-64
2022/03/15 02:47:51;;;;;;;53.60;30.80;;;;;;;-0.24;64.71;101817.98;87668;1284;97566;-64
2022/03/15 02:50:03;;;;;;;55.50;32.90;;;;;;;-0.25;64.84;101820.33;87383;1285;88180;-65
2022/03/15 02:52:15;;;;;;;55.20;33.00;;;;;;;-0.30;64.67;101823.95;87651;1284;95859;-63
2022/03/15 02:54:26;;;;;;;52.50;32.20;;;;;;;-0.37;64.66;101817.33;87639;1284;79310;-64
2022/03/15 02:56:39;;;;;;;50.10;31.10;;;;;;;-0.45;64.85;101820.23;87669;1284;81048;-64
2022/03/15 02:58:51;;;;;;;50.60;31.40;;;;;;;-0.52;64.96;101822.77;87682;1284;99480;-64
2022/03/15 03:01:00;;;;;;;54.80;31.10;;;;;;;-0.60;64.92;101828.29;87737;1284;88262;-63
2022/03/15 03:03:09;;;;;;;53.10;31.90;;;;;;;-0.71;64.88;101823.74;87634;1284;95476;-64
2022/03/15 03:05:21;;;;;;;51.90;30.30;;;;;;;-0.79;65.24;101825.08;87675;1284;77701;-64
2022/03/15 03:07:30;;;;;;;55.20;31.20;;;;;;;-0.84;65.28;101830.32;87685;1284;83213;-64
2022/03/15 03:09:39;;;;;;;49.60;29.20;;;;;;;-0.88;65.32;101832.30;87654;1284;98627;-63
2022/03/15 03:11:51;;;;;;;51.10;30.80;;;;;;;-0.96;65.54;101830.08;87671;1284;87714;-63
2022/03/15 03:14:04;;;;;;;51.00;30.70;;;;;;;-1.01;65.85;101827.17;87660;1284;95681;-65
2022/03/15 03:16:18;;;;;;;54.20;31.80;;;;;;;-1.04;65.87;101825.92;87662;1284;80113;-67
2022/03/15 03:18:32;;;;;;;53.10;31.00;;;;;;;-1.07;66.04;101835.06;87696;1284;81544;-69
2022/03/15 03:20:40;;;;;;;50.00;30.50;;;;;;;-1.03;66.03;101836.48;87679;1284;99996;-65
2022/03/15 03:22:51;;;;;;;56.70;33.10;;;;;;;-1.00;66.32;101846.22;87657;1284;88908;-65
2022/03/15 03:24:59;;;;;;;54.70;31.00;;;;;;;-1.00;66.21;101844.78;87696;1284;95058;-69
2022/03/15 03:27:11;;;;;;;50.80;31.60;;;;;;;-0.97;66.29;101846.42;87708;1284;78000;-69
2022/03/15 03:29:21;;;;;;;49.10;29.90;;;;;;;-0.97;66.62;101841.46;87675;1283;82312;-64
2022/03/15 03:31:30;;;;;;;54.40;31.50;;;;;;;-0.95;66.50;101839.92;87686;1284;100069;-65
2022/03/15 03:33:40;;;;;;;59.00;32.90;;;;;;;-0.95;66.64;101837.64;87673;1284;89189;-65
2022/03/15 03:35:50;;;;;;;54.90;33.10;;;;;;;-0.98;66.49;101833.02;87693;1283;93652;-69
2022/03/15 03:38:01;;;;;;;53.10;31.90;;;;;;;-1.04;66.68;101837.23;86887;1284;1073934;-70
2022/03/15 03:40:12;;;;;;;52.50;31.70;;;;;;;-1.11;66.54;101837.45;87700;1284;81686;-65
2022/03/15 03:42:21;;;;;;;51.40;31.70;;;;;;;-1.21;66.82;101836.32;87689;1284;99504;-65
2022/03/15 03:44:30;;;;;;;52.10;31.60;;;;;;;-1.22;66.89;101831.78;87679;1284;87919;-65
2022/03/15 03:46:39;;;;;;;53.90;32.90;;;;;;;-1.24;67.10;101832.06;87701;1284;95587;-65
2022/03/15 03:48:48;;;;;;;54.90;31.50;;;;;;;-1.28;67.02;101837.08;87668;1284;77867;-65
2022/03/15 03:50:57;;;;;;;56.40;32.20;;;;;;;-1.33;66.91;101836.61;87684;1284;83317;-65
2022/03/15 03:53:07;;;;;;;54.10;31.10;;;;;;;-1.39;67.13;101833.79;87639;1284;98737;-64
2022/03/15 03:55:16;;;;;;;55.20;32.30;;;;;;;-1.45;67.13;101832.30;87653;1284;88902;-69
2022/03/15 03:57:25;;;;;;;52.60;30.90;;;;;;;-1.47;67.30;101832.22;87674;1284;93715;-70
2022/03/15 03:59:34;;;;;;;55.50;32.30;;;;;;;-1.47;67.31;101829.39;87622;1284;81965;-65
2022/03/15 04:01:43;;;;;;;51.70;31.80;;;;;;;-1.45;67.30;101828.77;87644;1284;82004;-66
2022/03/15 04:03:53;;;;;;;53.00;29.70;;;;;;;-1.40;67.71;101834.52;87695;1284;100053;-68
2022/03/15 04:06:03;;;;;;;52.10;30.40;;;;;;;-1.35;67.87;101834.64;87712;1284;88662;-67
2022/03/15 04:08:14;;;;;;;51.00;30.20;;;;;;;-1.30;67.80;101832.04;87689;1284;95515;-67
2022/03/15 04:10:23;;;;;;;47.40;29.30;;;;;;;-1.25;67.98;101831.05;87703;1283;79072;-68
2022/03/15 04:12:32;;;;;;;53.10;31.30;;;;;;;-1.22;67.89;101831.80;87710;1284;82439;-67
2022/03/15 04:14:42;;;;;;;51.50;30.60;;;;;;;-1.18;67.96;101832.86;87661;1284;99860;-68
2022/03/15 04:16:51;;;;;;;45.40;30.10;;;;;;;-1.16;67.75;101829.57;87715;1284;88827;-68
2022/03/15 04:19:00;;;;;;;54.40;30.80;;;;;;;-1.13;67.96;101828.16;87681;1284;92862;-64
2022/03/15 04:21:09;;;;;;;54.80;31.60;;;;;;;-1.06;67.91;101825.30;87650;1284;79350;-64
2022/03/15 04:23:21;;;;;;;52.90;30.70;;;;;;;-0.99;67.87;101829.39;87389;1285;82713;-64
2022/03/15 04:25:30;;;;;;;47.60;29.70;;;;;;;-0.97;67.69;101828.77;87673;1283;97289;-67
2022/03/15 04:27:40;;;;;;;54.50;31.30;;;;;;;-0.97;67.52;101827.86;87408;1285;91162;-68
2022/03/15 04:29:48;;;;;;;52.60;31.50;;;;;;;-0.98;67.44;101821.35;87718;1284;94720;-67
2022/03/15 04:32:01;;;;;;;52.90;31.10;;;;;;;-1.02;67.33;101817.48;87700;1284;77248;-68
2022/03/15 04:34:10;;;;;;;56.50;31.30;;;;;;;-1.03;67.37;101820.38;87687;1284;82526;-68
2022/03/15 04:36:19;;;;;;;54.40;31.80;;;;;;;-1.04;67.28;101818.81;87692;1284;99622;-69
2022/03/15 04:38:28;;;;;;;52.80;32.10;;;;;;;-1.08;67.53;101817.83;87691;1284;89087;-67
2022/03/15 04:40:38;;;;;;;59.00;32.10;;;;;;;-1.09;67.49;101821.44;87380;1284;95086;-64
2022/03/15 04:42:50;;;;;;;48.90;29.60;;;;;;;-1.10;67.42;101820.74;87672;1284;78784;-64
2022/03/15 04:44:59;;;;;;;51.10;29.70;;;;;;;-1.08;67.56;101819.41;87730;1284;80320;-67
2022/03/15 04:47:09;;;;;;;51.30;29.90;;;;;;;-1.07;67.41;101822.19;87696;1284;100196;-67
2022/03/15 04:49:19;;;;;;;49.00;29.60;;;;;;;-1.06;67.53;101823.39;87762;1282;90020;-68
2022/03/15 04:51:28;;;;;;;49.60;28.40;;;;;;;-1.05;67.44;101822.64;87652;1284;95148;-67
2022/03/15 04:53:37;;;;;;;53.20;30.70;;;;;;;-1.06;67.53;101823.03;87658;1284;81462;-68
2022/03/15 04:55:46;;;;;;;52.70;29.60;;;;;;;-1.07;67.50;101824.64;87734;1284;81124;-67
2022/03/15 04:57:56;;;;;;;51.00;30.80;;;;;;;-1.03;67.74;101822.36;87688;1284;99495;-63
2022/03/15 05:00:09;;;;;;;45.20;29.80;;;;;;;-1.03;67.45;101818.78;87684;1284;88252;-64
2022/03/15 05:02:18;;;;;;;52.20;31.00;;;;;;;-1.00;67.47;101820.59;87697;1283;94682;-68
2022/03/15 05:04:29;;;;;;;50.40;29.30;;;;;;;-0.99;67.61;101821.58;87670;1284;78652;-67
2022/03/15 05:06:39;;;;;;;57.10;31.80;;;;;;;-1.00;67.54;101821.09;87692;1284;81140;-68
2022/03/15 05:08:48;;;;;;;51.10;30.90;;;;;;;-1.01;67.60;101818.52;87686;1284;100193;-68
2022/03/15 05:11:10;;;;;;;50.30;29.60;;;;;;;-1.04;67.55;101817.05;87696;1284;89131;-68
2022/03/15 05:13:20;;;;;;;53.10;31.20;;;;;;;-1.04;67.79;101823.08;87663;1284;95685;-68
2022/03/15 05:15:30;;;;;;;51.60;30.90;;;;;;;-1.05;67.72;101821.03;87661;1284;78424;-67
2022/03/15 05:17:39;;;;;;;53.40;30.50;;;;;;;-1.03;67.63;101819.51;87675;1284;82258;-68
2022/03/15 05:19:49;;;;;;;51.30;31.70;;;;;;;-1.04;67.71;101819.73;87708;1284;99793;-70
2022/03/15 05:21:59;;;;;;;49.00;29.50;;;;;;;-1.05;67.73;101817.83;87690;1284;89319;-69
2022/03/15 05:24:09;;;;;;;48.10;29.80;;;;;;;-1.00;67.90;101816.69;87649;1284;93613;-67
2022/03/15 05:26:19;;;;;;;46.00;29.40;;;;;;;-0.94;67.86;101816.55;87655;1284;80242;-68
2022/03/15 05:28:28;;;;;;;49.00;30.70;;;;;;;-0.89;67.94;101812.89;87704;1284;81439;-68
2022/03/15 05:30:38;;;;;;;47.90;29.00;;;;;;;-0.82;67.90;101808.48;87655;1284;98838;-64
2022/03/15 05:32:47;;;;;;;48.60;30.30;;;;;;;-0.74;67.83;101810.15;87678;1284;89429;-65
2022/03/15 05:34:58;;;;;;;47.80;28.10;;;;;;;-0.63;67.97;101816.27;87670;1284;95974;-66
2022/03/15 05:37:09;;;;;;;48.80;28.60;;;;;;;-0.47;67.96;101823.71;87394;1285;80087;-64
2022/03/15 05:39:18;;;;;;;43.60;28.00;;;;;;;-0.27;67.88;101821.52;87676;1284;82572;-64
2022/03/15 05:41:28;;;;;;;50.40;30.10;;;;;;;-0.11;67.93;101824.34;87672;1284;98826;-64
2022/03/15 05:43:37;;;;;;;45.70;28.00;;;;;;;0.08;67.96;101818.98;87692;1284;88697;-62
2022/03/15 05:45:48;;;;;;;51.00;30.50;;;;;;;0.29;67.75;101820.55;87663;1284;94772;-68
2022/03/15 05:48:00;;;;;;;47.90;29.50;;;;;;;0.55;67.66;101825.08;87437;1285;77721;-67
2022/03/15 05:50:11;;;;;;;48.90;29.70;;;;;;;0.88;67.52;101818.48;87747;1284;80943;-65
2022/03/15 05:52:20;;;;;;;48.00;27.30;;;;;;;1.52;67.30;101818.88;87723;1283;100378;-63
2022/03/15 05:54:29;;;;;;;47.30;29.80;;;;;;;2.58;67.29;101811.82;87752;1284;86107;-67
2022/03/15 05:56:40;;;;;;;46.60;30.00;;;;;;;3.82;66.45;101798.94;87691;1284;95970;-65
2022/03/15 05:58:58;;;;;;;45.90;29.90;;;;;;;5.04;65.51;101797.42;87699;1284;77521;-66
2022/03/15 06:01:07;;;;;;;45.20;29.50;;;;;;;6.27;64.18;101796.21;87718;1284;83507;-66
2022/03/15 06:03:17;;;;;;;41.60;28.50;;;;;;;7.19;62.86;101798.27;87694;1284;99967;-66
2022/03/15 06:05:27;;;;;;;42.40;28.00;;;;;;;8.07;61.84;101802.42;87687;1284;89817;-65
2022/03/15 06:07:43;;;;;;;44.80;28.70;;;;;;;8.79;60.45;101801.05;87694;1284;94564;-66
2022/03/15 06:09:53;;;;;;;39.10;26.80;;;;;;;9.47;59.24;101795.58;87700;1284;78143;-67
2022/03/15 06:12:03;;;;;;;47.20;28.50;;;;;;;10.13;57.96;101794.16;87680;1284;80099;-64
2022/03/15 06:14:12;;;;;;;43.10;26.30;;;;;;;10.79;56.68;101801.06;87703;1284;98317;-62
2022/03/15 06:16:21;;;;;;;41.70;29.20;;;;;;;11.16;55.59;101800.50;87685;1284;89575;-65
2022/03/15 06:18:33;;;;;;;41.70;26.80;;;;;;;11.47;54.63;101802.13;87684;1284;94029;-64
2022/03/15 06:20:42;;;;;;;37.40;27.50;;;;;;;11.65;53.63;101813.58;87665;1284;80307;-68
2022/03/15 06:22:51;;;;;;;38.10;26.90;;;;;;;11.62;52.32;101824.32;87687;1284;81148;-68
2022/03/15 06:25:00;;;;;;;40.40;27.90;;;;;;;11.58;51.60;101826.20;87663;1284;99535;-68
2022/03/15 06:27:11;;;;;;;41.20;27.80;;;;;;;11.78;50.95;101824.40;87705;1284;87129;-66
2022/03/15 06:29:24;;;;;;;35.90;26.90;;;;;;;12.08;50.55;101825.34;87401;1285;97586;-64
2022/03/15 06:31:33;;;;;;;39.50;27.70;;;;;;;12.49;49.49;101822.80;87640;1284;78811;-62
2022/03/15 06:33:42;;;;;;;39.10;26.30;;;;;;;12.50;48.33;101823.66;87683;1284;82000;-62
2022/03/15 06:35:51;;;;;;;36.30;26.50;;;;;;;12.11;47.82;101822.48;87694;1284;99738;-65
2022/03/15 06:38:01;;;;;;;40.00;27.40;;;;;;;12.45;47.94;101820.73;87675;1284;89669;-62
2022/03/15 06:40:17;;;;;;;40.10;29.40;;;;;;;13.13;47.38;101820.92;87725;1284;94935;-67
2022/03/15 06:42:26;;;;;;;43.10;28.60;;;;;;;13.36;45.99;101823.40;87711;1284;78218;-68
2022/03/15 06:44:40;;;;;;;38.00;29.30;;;;;;;14.04;45.72;101816.14;87707;1283;82350;-67
2022/03/15 06:46:49;;;;;;;38.90;28.10;;;;;;;14.62;45.21;101816.80;87705;1284;98821;-69
2022/03/15 06:48:58;;;;;;;37.60;28.80;;;;;;;15.01;44.99;101811.62;87659;1284;89174;-63
2022/03/15 06:51:07;;;;;;;39.30;27.10;;;;;;;14.92;44.60;101813.45;87680;1284;94648;-65
2022/03/15 06:53:19;;;;;;;35.30;27.20;;;;;;;14.07;44.38;101821.40;87686;1284;80315;-63
2022/03/15 06:55:28;;;;;;;37.60;27.10;;;;;;;13.15;44.43;101826.45;87428;1285;83013;-65
2022/03/15 06:57:41;;;;;;;37.00;26.80;;;;;;;12.32;44.67;101825.38;87667;1284;99399;-65
2022/03/15 06:59:50;;;;;;;33.90;27.50;;;;;;;12.60;45.22;101826.85;87681;1284;89179;-65
2022/03/15 07:01:59;;;;;;;36.40;24.90;;;;;;;13.94;45.49;101826.64;87673;1284;95160;-67
2022/03/15 07:04:11;;;;;;;31.90;25.50;;;;;;;15.07;44.85;101822.87;87654;1284;81168;-66
2022/03/15 07:06:21;;;;;;;35.00;25.50;;;;;;;15.49;43.62;101825.57;87681;1284;82049;-66
2022/03/15 07:08:30;;;;;;;32.00;24.80;;;;;;;16.02;42.66;101822.41;87678;1284;100963;-67
2022/03/15 07:10:39;;;;;;;30.60;25.10;;;;;;;16.25;42.52;101817.85;87661;1284;87795;-63
2022/03/15 07:12:48;;;;;;;32.10;26.00;;;;;;;16.25;42.33;101818.85;87691;1284;93860;-66
2022/03/15 07:14:57;;;;;;;159.90;125.10;;;;;;;16.27;41.88;101824.68;87672;1284;78478;-67
2022/03/15 07:17:06;;;;;;;72.30;59.20;;;;;;;16.01;41.33;101823.42;87660;1284;82426;-64
2022/03/15 07:19:15;;;;;;;31.40;25.60;;;;;;;16.15;41.15;101824.85;87688;1284;96628;-63
2022/03/15 07:21:27;;;;;;;30.10;23.40;;;;;;;16.56;41.03;101825.81;87459;1285;89540;-63
2022/03/15 07:23:38;;;;;;;28.20;23.80;;;;;;;16.96;40.58;101825.93;87675;1284;93410;-65
2022/03/15 07:25:47;;;;;;;27.90;24.70;;;;;;;17.55;40.04;101825.48;87685;1284;82813;-65
2022/03/15 07:27:58;;;;;;;28.50;24.10;;;;;;;18.32;38.89;101825.27;87697;1284;83036;-65
2022/03/15 07:30:14;;;;;;;29.40;23.30;;;;;;;18.71;38.75;101825.85;87681;1284;98896;-63
2022/03/15 07:32:23;;;;;;;28.90;23.00;;;;;;;18.95;38.62;101830.83;87573;1284;89025;-64
2022/03/15 07:34:31;;;;;;;26.90;21.70;;;;;;;18.63;37.67;101833.46;87659;1284;95360;-63
2022/03/15 07:36:43;;;;;;;26.10;22.90;;;;;;;18.14;37.94;101837.15;87693;1284;80641;-64
2022/03/15 07:38:53;;;;;;;27.80;23.40;;;;;;;18.78;38.30;101830.23;87702;1284;82547;-64
2022/03/15 07:41:04;;;;;;;24.80;21.80;;;;;;;19.85;37.24;101830.88;87694;1283;99775;-66
2022/03/15 07:43:14;;;;;;;30.50;22.40;;;;;;;20.13;35.51;101831.00;87669;1284;88210;-67
2022/03/15 07:45:26;;;;;;;26.70;22.30;;;;;;;20.47;36.53;101829.32;87661;1284;95334;-67
2022/03/15 07:47:35;;;;;;;25.10;21.90;;;;;;;21.29;35.76;101833.45;87638;1284;79160;-66
2022/03/15 07:49:47;;;;;;;26.10;22.70;;;;;;;21.77;35.64;101833.09;87661;1284;83136;-64
2022/03/15 07:51:59;;;;;;;28.00;22.20;;;;;;;21.96;34.90;101840.73;87679;1284;99453;-63
2022/03/15 07:54:11;;;;;;;25.20;22.40;;;;;;;22.27;34.12;101838.42;87680;1284;90025;-64
2022/03/15 07:56:24;;;;;;;24.70;22.00;;;;;;;22.64;33.38;101839.61;87680;1284;94957;-64
2022/03/15 07:58:36;;;;;;;25.40;22.50;;;;;;;22.63;32.45;101843.30;87685;1284;80284;-64
2022/03/15 08:00:47;;;;;;;27.80;24.90;;;;;;;22.82;32.27;101841.64;87701;1284;79585;-66
2022/03/15 08:02:56;;;;;;;28.80;25.50;;;;;;;23.11;32.37;101842.34;87716;1284;98857;-67
2022/03/15 08:05:07;;;;;;;25.50;22.60;;;;;;;23.45;31.41;101843.67;87707;1284;88249;-68
2022/03/15 08:07:16;;;;;;;25.60;22.30;;;;;;;23.74;30.99;101840.05;87421;1285;94457;-66
2022/03/15 08:09:25;;;;;;;25.20;22.70;;;;;;;23.78;30.65;101840.31;87669;1284;78347;-64
2022/03/15 08:11:35;;;;;;;25.90;21.50;;;;;;;23.69;29.90;101836.06;87711;1284;80077;-63
2022/03/15 08:13:49;;;;;;;26.00;23.30;;;;;;;23.77;29.53;101834.60;87674;1284;99107;-65
2022/03/15 08:15:58;;;;;;;30.10;23.50;;;;;;;23.68;29.98;101836.05;87692;1284;89385;-65
2022/03/15 08:18:07;;;;;;;28.70;22.60;;;;;;;23.78;29.48;101838.27;87689;1284;95842;-65
2022/03/15 08:20:20;;;;;;;28.30;22.40;;;;;;;23.71;29.48;101841.14;87699;1284;77893;-67
2022/03/15 08:22:33;;;;;;;26.20;23.40;;;;;;;23.56;29.31;101845.36;87699;1284;82526;-65
2022/03/15 08:24:45;;;;;;;26.00;22.20;;;;;;;23.47;29.09;101845.26;87731;1284;98950;-63
2022/03/15 08:26:57;;;;;;;24.20;21.70;;;;;;;23.13;29.02;101846.10;87700;1284;89835;-70
2022/03/15 08:29:10;;;;;;;25.20;22.50;;;;;;;22.37;29.52;101854.27;87660;1284;94860;-63
2022/03/15 08:31:20;;;;;;;23.00;20.60;;;;;;;21.33;29.87;101847.73;87711;1284;78453;-63
2022/03/15 08:33:32;;;;;;;24.30;20.30;;;;;;;20.56;30.26;101844.14;87454;1285;82850;-64
2022/03/15 08:35:41;;;;;;;23.10;20.70;;;;;;;20.04;31.18;101836.70;87684;1284;97997;-66
2022/03/15 08:37:53;;;;;;;24.20;21.50;;;;;;;19.68;31.79;101836.25;87739;1284;89200;-67
2022/03/15 08:40:02;;;;;;;23.40;20.30;;;;;;;19.03;32.51;101834.11;87718;1284;93508;-67
2022/03/15 08:42:14;;;;;;;24.00;21.40;;;;;;;18.81;33.04;101830.05;87685;1284;78950;-66
2022/03/15 08:44:23;;;;;;;22.50;20.20;;;;;;;19.03;32.98;101831.21;87726;1284;82034;-63
2022/03/15 08:46:32;;;;;;;24.20;20.90;;;;;;;19.28;32.91;101830.84;87698;1284;100587;-62
2022/03/15 08:48:41;;;;;;;25.80;21.00;;;;;;;19.14;33.09;101829.27;87698;1284;89015;-64
2022/03/15 08:50:50;;;;;;;24.10;20.80;;;;;;;18.68;33.51;101824.34;87338;1287;95637;-64
2022/03/15 08:53:02;;;;;;;23.00;20.50;;;;;;;18.53;34.15;101823.22;87695;1284;79174;-63
2022/03/15 08:55:15;;;;;;;22.10;19.80;;;;;;;18.79;34.19;101818.21;87706;1284;81636;-65
2022/03/15 08:57:27;;;;;;;22.90;20.40;;;;;;;19.09;33.95;101818.31;87429;1285;99402;-67
2022/03/15 08:59:36;;;;;;;23.70;21.20;;;;;;;19.46;34.07;101807.51;87713;1284;88600;-63
2022/03/15 09:01:45;;;;;;;22.70;20.30;;;;;;;20.27;33.86;101804.02;87699;1284;94164;-64
2022/03/15 09:03:54;;;;;;;23.90;21.20;;;;;;;20.93;33.53;101807.05;87429;1285;80107;-66
2022/03/15 09:06:06;;;;;;;22.40;20.00;;;;;;;21.13;32.35;101808.69;87722;1284;83628;-68
2022/03/15 09:08:15;;;;;;;21.60;19.30;;;;;;;21.19;32.42;101808.73;87662;1284;98542;-67
2022/03/15 09:10:25;;;;;;;22.10;19.70;;;;;;;21.30;32.39;101805.06;87720;1284;87102;-63
2022/03/15 09:12:34;;;;;;;23.90;20.90;;;;;;;21.59;31.48;101805.80;87698;1284;95318;-64
2022/03/15 09:14:43;;;;;;;22.40;20.00;;;;;;;21.61;32.10;101807.34;87704;1284;78153;-67
2022/03/15 09:16:52;;;;;;;21.10;19.00;;;;;;;21.84;31.72;101809.47;87702;1284;81981;-67
2022/03/15 09:19:01;;;;;;;22.30;19.90;;;;;;;21.63;31.90;101807.83;87451;1285;98094;-71
2022/03/15 09:21:12;;;;;;;22.50;19.60;;;;;;;21.60;32.26;101806.21;87691;1284;89432;-67
2022/03/15 09:23:22;;;;;;;20.10;18.10;;;;;;;21.77;32.26;101803.44;87428;1285;95292;-66
2022/03/15 09:25:32;;;;;;;19.80;17.90;;;;;;;21.26;32.52;101801.19;87673;1284;77905;-67
2022/03/15 09:27:41;;;;;;;20.70;18.60;;;;;;;21.14;32.49;101804.05;87685;1284;81946;-67
2022/03/15 09:29:54;;;;;;;21.20;19.10;;;;;;;20.80;32.60;101806.92;87522;1284;99404;-67
2022/03/15 09:32:04;;;;;;;20.30;18.10;;;;;;;20.56;32.92;101804.30;87697;1284;88282;-67
2022/03/15 09:34:17;;;;;;;21.20;18.80;;;;;;;20.48;32.84;101804.77;87676;1284;94227;-63
2022/03/15 09:36:26;;;;;;;20.30;18.30;;;;;;;20.12;32.65;101807.94;87673;1284;80542;-64
2022/03/15 09:38:36;;;;;;;19.70;17.70;;;;;;;19.67;33.28;101807.45;87690;1284;81067;-62
2022/03/15 09:40:49;;;;;;;19.50;16.60;;;;;;;19.34;33.35;101811.86;87680;1285;99540;-63
2022/03/15 09:43:00;;;;;;;20.60;17.60;;;;;;;18.86;34.78;101817.36;87695;1284;86618;-63
2022/03/15 09:45:15;;;;;;;18.60;16.80;;;;;;;18.57;35.54;101813.23;87695;1284;94837;-64
2022/03/15 09:47:32;;;;;;;19.90;17.90;;;;;;;18.28;36.31;101822.52;87680;1284;79943;-64
2022/03/15 09:49:46;;;;;;;21.00;18.90;;;;;;;17.91;36.32;101821.05;87655;1284;81754;-65
2022/03/15 09:51:59;;;;;;;22.50;19.20;;;;;;;17.84;36.38;101821.98;87657;1284;98594;-66
2022/03/15 09:54:12;;;;;;;21.20;18.70;;;;;;;17.70;36.74;101818.23;87714;1284;85685;-68